sensor_id;sensor_type;location;lat;lon;timestamp;pressure;altitude;pressure_sealevel;temperature
37452;BMP280;23314;51.114;6.900;2023-02-02T00:00:52;101767.75;;;9.41
37452;BMP280;23314;51.114;6.900;2023-02-02T00:03:18;101772.69;;;9.39
37452;BMP280;23314;51.114;6.900;2023-02-02T00:05:52;101762.03;;;9.39
37452;BMP280;23314;51.114;6.900;2023-02-02T00:08:19;101755.91;;;9.38
37452;BMP280;23314;51.114;6.900;2023-02-02T00:10:45;101766.56;;;9.35
37452;BMP280;23314;51.114;6.900;2023-02-02T00:13:11;101760.91;;;9.36
37452;BMP280;23314;51.114;6.900;2023-02-02T00:15:37;101762.38;;;9.34
37452;BMP280;23314;51.114;6.900;2023-02-02T00:18:03;101752.84;;;9.32
37452;BMP280;23314;51.114;6.900;2023-02-02T00:20:28;101764.63;;;9.31
37452;BMP280;23314;51.114;6.900;2023-02-02T00:22:54;101757.41;;;9.32
37452;BMP280;23314;51.114;6.900;2023-02-02T00:25:20;101752.44;;;9.30
37452;BMP280;23314;51.114;6.900;2023-02-02T00:27:46;101761.56;;;9.29
37452;BMP280;23314;51.114;6.900;2023-02-02T00:30:11;101763.47;;;9.29
37452;BMP280;23314;51.114;6.900;2023-02-02T00:32:37;101754.34;;;9.30
37452;BMP280;23314;51.114;6.900;2023-02-02T00:35:05;101743.69;;;9.30
37452;BMP280;23314;51.114;6.900;2023-02-02T00:37:31;101740.25;;;9.29
37452;BMP280;23314;51.114;6.900;2023-02-02T00:39:56;101739.13;;;9.30
37452;BMP280;23314;51.114;6.900;2023-02-02T00:42:21;101745.56;;;9.29
37452;BMP280;23314;51.114;6.900;2023-02-02T00:44:46;101741.78;;;9.30
37452;BMP280;23314;51.114;6.900;2023-02-02T00:47:30;101748.66;;;9.31
37452;BMP280;23314;51.114;6.900;2023-02-02T00:49:56;101751.69;;;9.30
37452;BMP280;23314;51.114;6.900;2023-02-02T00:52:21;101748.66;;;9.31
37452;BMP280;23314;51.114;6.900;2023-02-02T00:54:46;101747.09;;;9.30
37452;BMP280;23314;51.114;6.900;2023-02-02T00:57:12;101744.44;;;9.30
37452;BMP280;23314;51.114;6.900;2023-02-02T00:59:38;101752.81;;;9.29
37452;BMP280;23314;51.114;6.900;2023-02-02T01:02:04;101745.94;;;9.24
37452;BMP280;23314;51.114;6.900;2023-02-02T01:04:29;101752.41;;;9.23
37452;BMP280;23314;51.114;6.900;2023-02-02T01:06:55;101749.66;;;9.20
37452;BMP280;23314;51.114;6.900;2023-02-02T01:09:20;101753.47;;;9.19
37452;BMP280;23314;51.114;6.900;2023-02-02T01:11:46;101759.19;;;9.17
37452;BMP280;23314;51.114;6.900;2023-02-02T01:14:11;101762.19;;;9.15
37452;BMP280;23314;51.114;6.900;2023-02-02T01:16:36;101766.34;;;9.13
37452;BMP280;23314;51.114;6.900;2023-02-02T01:19:02;101769.78;;;9.13
37452;BMP280;23314;51.114;6.900;2023-02-02T01:21:27;101768.63;;;9.14
37452;BMP280;23314;51.114;6.900;2023-02-02T01:23:53;101773.63;;;9.16
37452;BMP280;23314;51.114;6.900;2023-02-02T01:26:18;101784.69;;;9.18
37452;BMP280;23314;51.114;6.900;2023-02-02T01:28:44;101782.38;;;9.17
37452;BMP280;23314;51.114;6.900;2023-02-02T01:31:12;101788.06;;;9.19
37452;BMP280;23314;51.114;6.900;2023-02-02T01:33:38;101785.41;;;9.15
37452;BMP280;23314;51.114;6.900;2023-02-02T01:36:06;101780.38;;;9.10
37452;BMP280;23314;51.114;6.900;2023-02-02T01:38:32;101787.94;;;9.04
37452;BMP280;23314;51.114;6.900;2023-02-02T01:40:58;101779.88;;;8.97
37452;BMP280;23314;51.114;6.900;2023-02-02T01:43:49;101783.63;;;8.92
37452;BMP280;23314;51.114;6.900;2023-02-02T01:46:29;101795.75;;;8.90
37452;BMP280;23314;51.114;6.900;2023-02-02T01:49:01;101789.63;;;8.86
37452;BMP280;23314;51.114;6.900;2023-02-02T01:51:52;101797.91;;;8.80
37452;BMP280;23314;51.114;6.900;2023-02-02T01:54:22;101797.91;;;8.77
37452;BMP280;23314;51.114;6.900;2023-02-02T01:56:54;101798.25;;;8.75
37452;BMP280;23314;51.114;6.900;2023-02-02T01:59:22;101801.69;;;8.76
37452;BMP280;23314;51.114;6.900;2023-02-02T02:01:49;101794.81;;;8.75
37452;BMP280;23314;51.114;6.900;2023-02-02T02:04:16;101802.44;;;8.76
37452;BMP280;23314;51.114;6.900;2023-02-02T02:06:41;101802.03;;;8.74
37452;BMP280;23314;51.114;6.900;2023-02-02T02:09:07;101804.28;;;8.72
37452;BMP280;23314;51.114;6.900;2023-02-02T02:11:33;101802.03;;;8.74
37452;BMP280;23314;51.114;6.900;2023-02-02T02:14:01;101794.81;;;8.75
37452;BMP280;23314;51.114;6.900;2023-02-02T02:31:55;101786.34;;;8.69
37452;BMP280;23314;51.114;6.900;2023-02-02T02:40:25;101783.00;;;8.72
37452;BMP280;23314;51.114;6.900;2023-02-02T02:42:57;101785.31;;;8.74
37452;BMP280;23314;51.114;6.900;2023-02-02T02:45:25;101781.88;;;8.73
37452;BMP280;23314;51.114;6.900;2023-02-02T02:47:51;101785.72;;;8.76
37452;BMP280;23314;51.114;6.900;2023-02-02T02:50:17;101789.13;;;8.76
37452;BMP280;23314;51.114;6.900;2023-02-02T02:52:44;101773.97;;;8.77
37452;BMP280;23314;51.114;6.900;2023-02-02T02:55:11;101777.38;;;8.77
37452;BMP280;23314;51.114;6.900;2023-02-02T02:57:56;101778.13;;;8.78
37452;BMP280;23314;51.114;6.900;2023-02-02T03:01:24;101781.94;;;8.80
37452;BMP280;23314;51.114;6.900;2023-02-02T03:03:26;101781.16;;;8.80
37452;BMP280;23314;51.114;6.900;2023-02-02T03:08:31;101781.16;;;8.80
37452;BMP280;23314;51.114;6.900;2023-02-02T03:10:58;101786.84;;;8.78
37452;BMP280;23314;51.114;6.900;2023-02-02T03:13:25;101789.56;;;8.82
37452;BMP280;23314;51.114;6.900;2023-02-02T03:15:51;101787.69;;;8.82
37452;BMP280;23314;51.114;6.900;2023-02-02T03:18:19;101793.44;;;8.85
37452;BMP280;23314;51.114;6.900;2023-02-02T03:20:46;101790.75;;;8.85
37452;BMP280;23314;51.114;6.900;2023-02-02T03:23:12;101788.84;;;8.85
37452;BMP280;23314;51.114;6.900;2023-02-02T03:25:38;101787.31;;;8.84
37452;BMP280;23314;51.114;6.900;2023-02-02T03:28:04;101783.53;;;8.85
37452;BMP280;23314;51.114;6.900;2023-02-02T03:30:30;101793.06;;;8.86
37452;BMP280;23314;51.114;6.900;2023-02-02T03:32:56;101790.44;;;8.90
37452;BMP280;23314;51.114;6.900;2023-02-02T03:35:21;101777.88;;;8.90
37452;BMP280;23314;51.114;6.900;2023-02-02T03:37:47;101788.53;;;8.90
37452;BMP280;23314;51.114;6.900;2023-02-02T03:40:12;101799.53;;;8.89
37452;BMP280;23314;51.114;6.900;2023-02-02T03:42:38;101791.94;;;8.91
37452;BMP280;23314;51.114;6.900;2023-02-02T03:45:04;101793.84;;;8.90
37452;BMP280;23314;51.114;6.900;2023-02-02T03:47:29;101799.16;;;8.90
37452;BMP280;23314;51.114;6.900;2023-02-02T03:49:55;101792.31;;;8.89
37452;BMP280;23314;51.114;6.900;2023-02-02T03:52:21;101791.94;;;8.91
37452;BMP280;23314;51.114;6.900;2023-02-02T03:54:46;101798.75;;;8.88
37452;BMP280;23314;51.114;6.900;2023-02-02T03:57:11;101796.88;;;8.89
37452;BMP280;23314;51.114;6.900;2023-02-02T03:59:36;101795.38;;;8.88
37452;BMP280;23314;51.114;6.900;2023-02-02T04:02:02;101791.19;;;8.87
37452;BMP280;23314;51.114;6.900;2023-02-02T04:04:27;101799.09;;;8.83
37452;BMP280;23314;51.114;6.900;2023-02-02T04:06:53;101798.31;;;8.82
37452;BMP280;23314;51.114;6.900;2023-02-02T04:09:18;101797.97;;;8.84
37452;BMP280;23314;51.114;6.900;2023-02-02T04:11:43;101797.97;;;8.84
37452;BMP280;23314;51.114;6.900;2023-02-02T04:14:09;101803.66;;;8.82
37452;BMP280;23314;51.114;6.900;2023-02-02T04:16:34;101800.63;;;8.84
37452;BMP280;23314;51.114;6.900;2023-02-02T04:19:02;101792.63;;;8.84
37452;BMP280;23314;51.114;6.900;2023-02-02T04:21:28;101796.41;;;8.83
37452;BMP280;23314;51.114;6.900;2023-02-02T04:23:53;101800.63;;;8.84
37452;BMP280;23314;51.114;6.900;2023-02-02T04:26:19;101805.59;;;8.86
37452;BMP280;23314;51.114;6.900;2023-02-02T04:28:44;101807.13;;;8.87
37452;BMP280;23314;51.114;6.900;2023-02-02T04:31:09;101807.91;;;8.87
37452;BMP280;23314;51.114;6.900;2023-02-02T04:33:34;101809.81;;;8.87
37452;BMP280;23314;51.114;6.900;2023-02-02T04:36:00;101814.00;;;8.88
37452;BMP280;23314;51.114;6.900;2023-02-02T04:38:25;101825.03;;;8.90
37452;BMP280;23314;51.114;6.900;2023-02-02T04:40:51;101811.34;;;8.91
37452;BMP280;23314;51.114;6.900;2023-02-02T04:43:16;101830.75;;;8.92
37452;BMP280;23314;51.114;6.900;2023-02-02T04:45:42;101835.31;;;8.91
37452;BMP280;23314;51.114;6.900;2023-02-02T04:48:08;101824.66;;;8.91
37452;BMP280;23314;51.114;6.900;2023-02-02T04:50:34;101818.16;;;8.89
37452;BMP280;23314;51.114;6.900;2023-02-02T04:52:59;101832.63;;;8.88
37452;BMP280;23314;51.114;6.900;2023-02-02T04:55:24;101827.66;;;8.86
37452;BMP280;23314;51.114;6.900;2023-02-02T04:57:50;101829.13;;;8.83
37452;BMP280;23314;51.114;6.900;2023-02-02T05:00:15;101830.25;;;8.82
37452;BMP280;23314;51.114;6.900;2023-02-02T05:02:41;101831.72;;;8.80
37452;BMP280;23314;51.114;6.900;2023-02-02T05:05:10;101820.75;;;8.81
37452;BMP280;23314;51.114;6.900;2023-02-02T05:07:36;101827.53;;;8.79
37452;BMP280;23314;51.114;6.900;2023-02-02T05:10:02;101830.97;;;8.79
37452;BMP280;23314;51.114;6.900;2023-02-02T05:12:28;101826.41;;;8.80
37452;BMP280;23314;51.114;6.900;2023-02-02T05:14:53;101833.63;;;8.79
37452;BMP280;23314;51.114;6.900;2023-02-02T05:17:18;101831.34;;;8.78
37452;BMP280;23314;51.114;6.900;2023-02-02T05:19:44;101838.16;;;8.75
37452;BMP280;23314;51.114;6.900;2023-02-02T05:22:09;101841.94;;;8.74
37452;BMP280;23314;51.114;6.900;2023-02-02T05:24:34;101835.84;;;8.74
37452;BMP280;23314;51.114;6.900;2023-02-02T05:27:00;101838.50;;;8.74
37452;BMP280;23314;51.114;6.900;2023-02-02T05:29:29;101832.00;;;8.71
37452;BMP280;23314;51.114;6.900;2023-02-02T05:31:55;101829.34;;;8.71
37452;BMP280;23314;51.114;6.900;2023-02-02T05:34:21;101819.47;;;8.72
37452;BMP280;23314;51.114;6.900;2023-02-02T05:36:47;101818.34;;;8.73
37452;BMP280;23314;51.114;6.900;2023-02-02T05:39:12;101809.97;;;8.71
37452;BMP280;23314;51.114;6.900;2023-02-02T05:41:37;101824.81;;;8.72
37452;BMP280;23314;51.114;6.900;2023-02-02T05:44:03;101823.31;;;8.74
37452;BMP280;23314;51.114;6.900;2023-02-02T05:46:29;101813.78;;;8.73
37452;BMP280;23314;51.114;6.900;2023-02-02T05:48:54;101817.22;;;8.74
37452;BMP280;23314;51.114;6.900;2023-02-02T05:51:26;101808.13;;;8.75
37452;BMP280;23314;51.114;6.900;2023-02-02T05:53:52;101806.63;;;8.77
37452;BMP280;23314;51.114;6.900;2023-02-02T05:56:17;101798.25;;;8.79
37452;BMP280;23314;51.114;6.900;2023-02-02T05:58:43;101807.06;;;8.83
37452;BMP280;23314;51.114;6.900;2023-02-02T06:01:11;101814.28;;;8.82
37452;BMP280;23314;51.114;6.900;2023-02-02T06:03:36;101812.03;;;8.85
37452;BMP280;23314;51.114;6.900;2023-02-02T06:06:02;101845.84;;;8.84
37452;BMP280;23314;51.114;6.900;2023-02-02T06:08:27;101831.78;;;8.83
37452;BMP280;23314;51.114;6.900;2023-02-02T06:10:52;101826.88;;;8.86
37452;BMP280;23314;51.114;6.900;2023-02-02T06:13:18;101847.44;;;8.89
37452;BMP280;23314;51.114;6.900;2023-02-02T06:15:43;101844.78;;;8.89
37452;BMP280;23314;51.114;6.900;2023-02-02T06:18:09;101844.03;;;8.92
37452;BMP280;23314;51.114;6.900;2023-02-02T06:20:34;101847.22;;;9.01
37452;BMP280;23314;51.114;6.900;2023-02-02T06:23:00;101853.31;;;9.02
37452;BMP280;23314;51.114;6.900;2023-02-02T06:25:26;101841.50;;;9.03
37452;BMP280;23314;51.114;6.900;2023-02-02T06:27:59;101858.22;;;8.99
37452;BMP280;23314;51.114;6.900;2023-02-02T06:30:25;101856.31;;;8.96
37452;BMP280;23314;51.114;6.900;2023-02-02T06:32:50;101858.56;;;8.94
37452;BMP280;23314;51.114;6.900;2023-02-02T06:35:16;101866.88;;;8.93
37452;BMP280;23314;51.114;6.900;2023-02-02T06:37:41;101875.59;;;8.90
37452;BMP280;23314;51.114;6.900;2023-02-02T06:40:07;101862.66;;;8.92
37452;BMP280;23314;51.114;6.900;2023-02-02T06:42:33;101860.00;;;8.92
37452;BMP280;23314;51.114;6.900;2023-02-02T06:44:59;101856.44;;;9.11
37452;BMP280;23314;51.114;6.900;2023-02-02T06:47:24;101856.16;;;9.20
37452;BMP280;23314;51.114;6.900;2023-02-02T06:49:49;101857.22;;;9.11
37452;BMP280;23314;51.114;6.900;2023-02-02T06:52:15;101861.69;;;9.04
37452;BMP280;23314;51.114;6.900;2023-02-02T06:54:40;101863.97;;;9.02
37452;BMP280;23314;51.114;6.900;2023-02-02T06:57:05;101861.25;;;8.98
37452;BMP280;23314;51.114;6.900;2023-02-02T06:59:31;101858.97;;;8.96
37452;BMP280;23314;51.114;6.900;2023-02-02T07:01:56;101873.03;;;8.97
37452;BMP280;23314;51.114;6.900;2023-02-02T07:04:21;101865.81;;;8.97
37452;BMP280;23314;51.114;6.900;2023-02-02T07:06:47;101874.94;;;8.96
37452;BMP280;23314;51.114;6.900;2023-02-02T07:09:12;101870.38;;;8.97
37452;BMP280;23314;51.114;6.900;2023-02-02T07:11:38;101882.91;;;8.96
37452;BMP280;23314;51.114;6.900;2023-02-02T07:14:03;101883.31;;;8.98
37452;BMP280;23314;51.114;6.900;2023-02-02T07:16:29;101887.47;;;8.96
37452;BMP280;23314;51.114;6.900;2023-02-02T07:18:54;101892.78;;;8.96
37452;BMP280;23314;51.114;6.900;2023-02-02T07:21:24;101887.81;;;8.94
37452;BMP280;23314;51.114;6.900;2023-02-02T07:23:50;101890.13;;;8.96
37452;BMP280;23314;51.114;6.900;2023-02-02T07:26:17;101884.78;;;8.96
37452;BMP280;23314;51.114;6.900;2023-02-02T07:28:43;101888.25;;;8.96
37452;BMP280;23314;51.114;6.900;2023-02-02T07:33:40;101893.91;;;8.95
37452;BMP280;23314;51.114;6.900;2023-02-02T07:36:06;101902.59;;;8.92
37452;BMP280;23314;51.114;6.900;2023-02-02T07:38:32;101900.31;;;8.90
37452;BMP280;23314;51.114;6.900;2023-02-02T07:40:59;101896.09;;;8.89
37452;BMP280;23314;51.114;6.900;2023-02-02T07:43:25;101892.31;;;8.90
37452;BMP280;23314;51.114;6.900;2023-02-02T07:45:50;101902.97;;;8.90
37452;BMP280;23314;51.114;6.900;2023-02-02T07:48:16;101911.31;;;8.89
37452;BMP280;23314;51.114;6.900;2023-02-02T07:50:41;101906.34;;;8.87
37452;BMP280;23314;51.114;6.900;2023-02-02T07:53:06;101910.19;;;8.90
37452;BMP280;23314;51.114;6.900;2023-02-02T07:55:31;101906.38;;;8.91
37452;BMP280;23314;51.114;6.900;2023-02-02T07:57:57;101907.22;;;8.95
37452;BMP280;23314;51.114;6.900;2023-02-02T08:00:24;101908.34;;;8.94
37452;BMP280;23314;51.114;6.900;2023-02-02T08:02:49;101906.88;;;8.96
37452;BMP280;23314;51.114;6.900;2023-02-02T08:05:15;101901.94;;;8.98
37452;BMP280;23314;51.114;6.900;2023-02-02T08:07:40;101902.69;;;8.99
37452;BMP280;23314;51.114;6.900;2023-02-02T08:10:06;101895.53;;;9.03
37452;BMP280;23314;51.114;6.900;2023-02-02T08:12:31;101904.63;;;9.02
37452;BMP280;23314;51.114;6.900;2023-02-02T08:14:56;101908.44;;;9.01
37452;BMP280;23314;51.114;6.900;2023-02-02T08:17:23;101911.56;;;9.07
37452;BMP280;23314;51.114;6.900;2023-02-02T08:19:48;101921.44;;;9.06
37452;BMP280;23314;51.114;6.900;2023-02-02T08:22:14;101918.41;;;9.08
37452;BMP280;23314;51.114;6.900;2023-02-02T08:24:39;101911.59;;;9.10
37452;BMP280;23314;51.114;6.900;2023-02-02T08:27:07;101916.94;;;9.10
37452;BMP280;23314;51.114;6.900;2023-02-02T08:29:37;101920.34;;;9.11
37452;BMP280;23314;51.114;6.900;2023-02-02T08:32:03;101921.88;;;9.12
37452;BMP280;23314;51.114;6.900;2023-02-02T08:34:30;101925.31;;;9.12
37452;BMP280;23314;51.114;6.900;2023-02-02T08:36:55;101922.66;;;9.12
37452;BMP280;23314;51.114;6.900;2023-02-02T08:39:21;101926.44;;;9.11
37452;BMP280;23314;51.114;6.900;2023-02-02T08:41:46;101928.75;;;9.13
37452;BMP280;23314;51.114;6.900;2023-02-02T08:44:14;101928.03;;;9.16
37452;BMP280;23314;51.114;6.900;2023-02-02T08:46:40;101934.50;;;9.19
37452;BMP280;23314;51.114;6.900;2023-02-02T08:49:07;101940.22;;;9.17
37452;BMP280;23314;51.114;6.900;2023-02-02T08:51:34;101939.03;;;9.14
37452;BMP280;23314;51.114;6.900;2023-02-02T08:53:59;101938.69;;;9.16
37452;BMP280;23314;51.114;6.900;2023-02-02T08:56:24;101943.59;;;9.14
37452;BMP280;23314;51.114;6.900;2023-02-02T08:58:54;101943.97;;;9.12
37452;BMP280;23314;51.114;6.900;2023-02-02T09:01:30;101945.09;;;9.11
37452;BMP280;23314;51.114;6.900;2023-02-02T09:03:59;101944.31;;;9.11
37452;BMP280;23314;51.114;6.900;2023-02-02T09:06:27;101951.16;;;9.12
37452;BMP280;23314;51.114;6.900;2023-02-02T09:08:53;101948.16;;;9.13
37452;BMP280;23314;51.114;6.900;2023-02-02T09:11:18;101952.75;;;9.17
37452;BMP280;23314;51.114;6.900;2023-02-02T09:13:46;101957.75;;;9.18
37452;BMP280;23314;51.114;6.900;2023-02-02T09:16:14;101977.19;;;9.22
37452;BMP280;23314;51.114;6.900;2023-02-02T09:18:40;101979.47;;;9.24
37452;BMP280;23314;51.114;6.900;2023-02-02T09:21:09;101969.94;;;9.23
37452;BMP280;23314;51.114;6.900;2023-02-02T09:23:36;101972.97;;;9.21
37452;BMP280;23314;51.114;6.900;2023-02-02T09:26:45;101974.44;;;9.19
37452;BMP280;23314;51.114;6.900;2023-02-02T09:29:05;101985.81;;;9.15
37452;BMP280;23314;51.114;6.900;2023-02-02T09:31:35;102002.88;;;9.11
37452;BMP280;23314;51.114;6.900;2023-02-02T09:34:05;102001.00;;;9.11
37452;BMP280;23314;51.114;6.900;2023-02-02T09:36:31;102008.97;;;9.11
37452;BMP280;23314;51.114;6.900;2023-02-02T09:38:57;102007.84;;;9.12
37452;BMP280;23314;51.114;6.900;2023-02-02T09:47:45;102019.25;;;9.13
37452;BMP280;23314;51.114;6.900;2023-02-02T09:52:45;102034.13;;;9.14
37452;BMP280;23314;51.114;6.900;2023-02-02T09:55:32;102043.59;;;9.11
37452;BMP280;23314;51.114;6.900;2023-02-02T09:58:27;102039.69;;;9.05
37452;BMP280;23314;51.114;6.900;2023-02-02T10:00:59;102042.69;;;9.04
37452;BMP280;23314;51.114;6.900;2023-02-02T10:06:38;102056.84;;;9.08
37452;BMP280;23314;51.114;6.900;2023-02-02T10:12:05;102056.91;;;9.11
37452;BMP280;23314;51.114;6.900;2023-02-02T10:14:42;102067.19;;;9.13
37452;BMP280;23314;51.114;6.900;2023-02-02T10:19:45;102065.31;;;9.13
37452;BMP280;23314;51.114;6.900;2023-02-02T10:22:17;102073.28;;;9.13
37452;BMP280;23314;51.114;6.900;2023-02-02T10:24:43;102086.66;;;9.17
37452;BMP280;23314;51.114;6.900;2023-02-02T10:27:24;102077.56;;;9.18
37452;BMP280;23314;51.114;6.900;2023-02-02T10:29:56;102083.69;;;9.22
37452;BMP280;23314;51.114;6.900;2023-02-02T10:32:25;102084.88;;;9.25
37452;BMP280;23314;51.114;6.900;2023-02-02T10:46:36;102089.78;;;9.50
37452;BMP280;23314;51.114;6.900;2023-02-02T10:51:39;102086.91;;;9.62
37452;BMP280;23314;51.114;6.900;2023-02-02T10:57:07;102082.88;;;9.75
37452;BMP280;23314;51.114;6.900;2023-02-02T10:59:43;102086.38;;;9.79
37452;BMP280;23314;51.114;6.900;2023-02-02T11:02:14;102093.69;;;9.86
37452;BMP280;23314;51.114;6.900;2023-02-02T11:04:39;102083.84;;;9.90
37452;BMP280;23314;51.114;6.900;2023-02-02T11:07:23;102094.16;;;9.92
37452;BMP280;23314;51.114;6.900;2023-02-02T11:09:48;102097.53;;;9.89
37452;BMP280;23314;51.114;6.900;2023-02-02T11:12:26;102104.06;;;9.91
37452;BMP280;23314;51.114;6.900;2023-02-02T11:15:06;102103.28;;;9.91
37452;BMP280;23314;51.114;6.900;2023-02-02T11:17:32;102102.94;;;9.92
37452;BMP280;23314;51.114;6.900;2023-02-02T11:19:59;102098.34;;;9.93
37452;BMP280;23314;51.114;6.900;2023-02-02T11:22:29;102102.19;;;9.95
37452;BMP280;23314;51.114;6.900;2023-02-02T11:24:56;102102.94;;;9.96
37452;BMP280;23314;51.114;6.900;2023-02-02T11:27:25;102106.03;;;9.98
37452;BMP280;23314;51.114;6.900;2023-02-02T11:29:53;102114.78;;;9.99
37452;BMP280;23314;51.114;6.900;2023-02-02T11:38:09;102106.44;;;10.00
37452;BMP280;23314;51.114;6.900;2023-02-02T11:40:41;102099.94;;;9.98
37452;BMP280;23314;51.114;6.900;2023-02-02T11:43:20;102100.31;;;10.00
37452;BMP280;23314;51.114;6.900;2023-02-02T11:45:55;102097.31;;;10.01
37452;BMP280;23314;51.114;6.900;2023-02-02T11:48:29;102098.47;;;10.04
37452;BMP280;23314;51.114;6.900;2023-02-02T11:50:57;102086.75;;;10.08
37452;BMP280;23314;51.114;6.900;2023-02-02T11:53:33;102089.75;;;10.10
37452;BMP280;23314;51.114;6.900;2023-02-02T11:56:10;102092.91;;;10.16
37452;BMP280;23314;51.114;6.900;2023-02-02T11:58:48;102081.53;;;10.23
37452;BMP280;23314;51.114;6.900;2023-02-02T12:01:31;102086.16;;;10.30
37452;BMP280;23314;51.114;6.900;2023-02-02T12:04:00;102084.31;;;10.34
37452;BMP280;23314;51.114;6.900;2023-02-02T12:08:59;102090.63;;;10.56
37452;BMP280;23314;51.114;6.900;2023-02-02T12:14:46;102082.00;;;10.73
37452;BMP280;23314;51.114;6.900;2023-02-02T12:17:24;102082.09;;;10.84
37452;BMP280;23314;51.114;6.900;2023-02-02T12:28:48;102077.91;;;10.83
37452;BMP280;23314;51.114;6.900;2023-02-02T12:33:58;102083.63;;;10.82
37452;BMP280;23314;51.114;6.900;2023-02-02T12:36:32;102090.84;;;10.81
37452;BMP280;23314;51.114;6.900;2023-02-02T12:39:19;102086.25;;;10.78
37452;BMP280;23314;51.114;6.900;2023-02-02T12:42:22;102079.03;;;10.82
37452;BMP280;23314;51.114;6.900;2023-02-02T12:53:37;102090.94;;;10.92
37452;BMP280;23314;51.114;6.900;2023-02-02T12:56:21;102094.06;;;11.01
37452;BMP280;23314;51.114;6.900;2023-02-02T13:01:29;102079.19;;;11.07
37452;BMP280;23314;51.114;6.900;2023-02-02T13:12:32;102086.53;;;11.18
37452;BMP280;23314;51.114;6.900;2023-02-02T13:15:02;102087.66;;;11.17
37452;BMP280;23314;51.114;6.900;2023-02-02T13:17:40;102093.75;;;11.14
37452;BMP280;23314;51.114;6.900;2023-02-02T13:20:22;102097.16;;;11.07
37452;BMP280;23314;51.114;6.900;2023-02-02T13:22:50;102089.50;;;11.05
37452;BMP280;23314;51.114;6.900;2023-02-02T13:25:23;102090.63;;;11.01
37452;BMP280;23314;51.114;6.900;2023-02-02T13:27:50;102091.41;;;11.05
37452;BMP280;23314;51.114;6.900;2023-02-02T13:30:37;102089.13;;;11.03
37452;BMP280;23314;51.114;6.900;2023-02-02T13:33:24;102090.66;;;11.04
37452;BMP280;23314;51.114;6.900;2023-02-02T13:35:54;102097.88;;;11.00
37452;BMP280;23314;51.114;6.900;2023-02-02T13:38:27;102091.34;;;10.94
37452;BMP280;23314;51.114;6.900;2023-02-02T13:40:56;102093.19;;;10.86
37452;BMP280;23314;51.114;6.900;2023-02-02T13:46:18;102088.09;;;10.74
37452;BMP280;23314;51.114;6.900;2023-02-02T13:49:07;102094.13;;;10.64
37452;BMP280;23314;51.114;6.900;2023-02-02T13:55:15;102092.03;;;10.46
37452;BMP280;23314;51.114;6.900;2023-02-02T13:58:21;102100.03;;;10.46
37452;BMP280;23314;51.114;6.900;2023-02-02T14:00:50;102105.03;;;10.44
37452;BMP280;23314;51.114;6.900;2023-02-02T14:06:01;102107.00;;;10.54
37452;BMP280;23314;51.114;6.900;2023-02-02T14:08:29;102100.94;;;10.57
37452;BMP280;23314;51.114;6.900;2023-02-02T14:10:57;102108.94;;;10.57
37452;BMP280;23314;51.114;6.900;2023-02-02T14:18:55;102093.75;;;10.65
37452;BMP280;23314;51.114;6.900;2023-02-02T14:23:57;102098.69;;;10.63
37452;BMP280;23314;51.114;6.900;2023-02-02T14:26:41;102097.16;;;10.62
37452;BMP280;23314;51.114;6.900;2023-02-02T14:31:58;102092.97;;;10.61
37452;BMP280;23314;51.114;6.900;2023-02-02T14:34:28;102100.22;;;10.60
37452;BMP280;23314;51.114;6.900;2023-02-02T14:45:36;102102.13;;;10.64
37452;BMP280;23314;51.114;6.900;2023-02-02T14:53:32;102113.97;;;10.66
37452;BMP280;23314;51.114;6.900;2023-02-02T14:56:12;102118.56;;;10.66
37452;BMP280;23314;51.114;6.900;2023-02-02T15:06:44;102112.09;;;10.67
37452;BMP280;23314;51.114;6.900;2023-02-02T15:14:35;102128.16;;;10.74
37452;BMP280;23314;51.114;6.900;2023-02-02T15:17:29;102133.06;;;10.72
37452;BMP280;23314;51.114;6.900;2023-02-02T15:22:41;102134.97;;;10.68
37452;BMP280;23314;51.114;6.900;2023-02-02T15:25:17;102144.88;;;10.67
37452;BMP280;23314;51.114;6.900;2023-02-02T15:27:50;102155.88;;;10.62
37452;BMP280;23314;51.114;6.900;2023-02-02T15:30:16;102146.72;;;10.59
37452;BMP280;23314;51.114;6.900;2023-02-02T15:32:43;102152.03;;;10.59
37452;BMP280;23314;51.114;6.900;2023-02-02T15:35:21;102147.44;;;10.56
37452;BMP280;23314;51.114;6.900;2023-02-02T15:37:56;102142.88;;;10.57
37452;BMP280;23314;51.114;6.900;2023-02-02T15:40:25;102148.59;;;10.59
37452;BMP280;23314;51.114;6.900;2023-02-02T15:43:07;102150.91;;;10.60
37452;BMP280;23314;51.114;6.900;2023-02-02T15:45:47;102152.81;;;10.60
37452;BMP280;23314;51.114;6.900;2023-02-02T15:48:26;102154.34;;;10.61
37452;BMP280;23314;51.114;6.900;2023-02-02T15:50:55;102168.06;;;10.63
37452;BMP280;23314;51.114;6.900;2023-02-02T15:53:26;102165.41;;;10.63
37452;BMP280;23314;51.114;6.900;2023-02-02T15:55:52;102163.16;;;10.65
37452;BMP280;23314;51.114;6.900;2023-02-02T15:58:29;102164.34;;;10.68
37452;BMP280;23314;51.114;6.900;2023-02-02T16:01:12;102168.47;;;10.65
37452;BMP280;23314;51.114;6.900;2023-02-02T16:04:21;102167.34;;;10.66
37452;BMP280;23314;51.114;6.900;2023-02-02T16:06:49;102187.25;;;10.69
37452;BMP280;23314;51.114;6.900;2023-02-02T16:09:26;102182.66;;;10.69
37452;BMP280;23314;51.114;6.900;2023-02-02T16:11:53;102185.31;;;10.69
37452;BMP280;23314;51.114;6.900;2023-02-02T16:14:18;102197.91;;;10.69
37452;BMP280;23314;51.114;6.900;2023-02-02T16:16:45;102191.38;;;10.66
37452;BMP280;23314;51.114;6.900;2023-02-02T16:19:20;102189.84;;;10.65
37452;BMP280;23314;51.114;6.900;2023-02-02T16:22:00;102209.97;;;10.59
37452;BMP280;23314;51.114;6.900;2023-02-02T16:24:35;102219.41;;;10.49
37452;BMP280;23314;51.114;6.900;2023-02-02T16:27:04;102215.88;;;10.41
37452;BMP280;23314;51.114;6.900;2023-02-02T16:29:33;102212.31;;;10.30
37452;BMP280;23314;51.114;6.900;2023-02-02T16:31:58;102213.34;;;10.18
37452;BMP280;23314;51.114;6.900;2023-02-02T16:37:16;102226.75;;;9.99
37452;BMP280;23314;51.114;6.900;2023-02-02T16:39:41;102227.03;;;9.90
37452;BMP280;23314;51.114;6.900;2023-02-02T16:42:27;102222.38;;;9.83
37452;BMP280;23314;51.114;6.900;2023-02-02T16:44:54;102226.00;;;9.75
37452;BMP280;23314;51.114;6.900;2023-02-02T16:49:53;102231.94;;;9.61
37452;BMP280;23314;51.114;6.900;2023-02-02T16:52:20;102239.16;;;9.60
37452;BMP280;23314;51.114;6.900;2023-02-02T16:54:53;102236.41;;;9.57
37452;BMP280;23314;51.114;6.900;2023-02-02T16:57:24;102237.91;;;9.54